sensor_id;sensor_type;location;lat;lon;timestamp;temperature;humidity
35894;DHT22;21994;48.204;16.516;2022-11-20T00:00:04;1.60;99.90
35894;DHT22;21994;48.204;16.516;2022-11-20T00:02:30;1.50;99.90
35894;DHT22;21994;48.204;16.516;2022-11-20T00:04:55;1.50;99.90
35894;DHT22;21994;48.204;16.516;2022-11-20T00:07:21;1.50;99.90
35894;DHT22;21994;48.204;16.516;2022-11-20T00:09:47;1.60;99.90
35894;DHT22;21994;48.204;16.516;2022-11-20T00:12:13;1.80;99.90
35894;DHT22;21994;48.204;16.516;2022-11-20T00:14:38;1.90;99.90
35894;DHT22;21994;48.204;16.516;2022-11-20T00:17:04;1.90;99.90
35894;DHT22;21994;48.204;16.516;2022-11-20T00:19:30;1.90;99.90
35894;DHT22;21994;48.204;16.516;2022-11-20T00:21:55;1.80;99.90
35894;DHT22;21994;48.204;16.516;2022-11-20T00:24:21;1.70;99.90
35894;DHT22;21994;48.204;16.516;2022-11-20T00:26:47;1.80;99.90
35894;DHT22;21994;48.204;16.516;2022-11-20T00:29:12;1.80;99.90
35894;DHT22;21994;48.204;16.516;2022-11-20T00:31:38;1.80;99.90
35894;DHT22;21994;48.204;16.516;2022-11-20T00:34:04;1.80;99.90
35894;DHT22;21994;48.204;16.516;2022-11-20T00:36:32;1.70;99.90
35894;DHT22;21994;48.204;16.516;2022-11-20T00:38:58;1.80;99.90
35894;DHT22;21994;48.204;16.516;2022-11-20T00:41:25;1.80;99.90
35894;DHT22;21994;48.204;16.516;2022-11-20T00:43:51;1.70;99.90
35894;DHT22;21994;48.204;16.516;2022-11-20T00:46:19;1.50;99.90
35894;DHT22;21994;48.204;16.516;2022-11-20T00:48:46;1.60;99.90
35894;DHT22;21994;48.204;16.516;2022-11-20T00:51:13;1.70;99.90
35894;DHT22;21994;48.204;16.516;2022-11-20T00:53:40;1.70;99.90
35894;DHT22;21994;48.204;16.516;2022-11-20T00:56:07;1.80;99.90
35894;DHT22;21994;48.204;16.516;2022-11-20T00:58:35;1.80;99.90
35894;DHT22;21994;48.204;16.516;2022-11-20T01:03:40;1.70;99.90
35894;DHT22;21994;48.204;16.516;2022-11-20T01:06:11;1.60;99.90
35894;DHT22;21994;48.204;16.516;2022-11-20T01:08:38;1.70;99.90
35894;DHT22;21994;48.204;16.516;2022-11-20T01:11:09;1.60;99.90
35894;DHT22;21994;48.204;16.516;2022-11-20T01:13:36;1.50;99.90
35894;DHT22;21994;48.204;16.516;2022-11-20T01:16:03;1.50;99.90
35894;DHT22;21994;48.204;16.516;2022-11-20T01:18:32;1.40;99.90
35894;DHT22;21994;48.204;16.516;2022-11-20T01:21:03;1.50;99.90
35894;DHT22;21994;48.204;16.516;2022-11-20T01:23:33;1.50;99.90
35894;DHT22;21994;48.204;16.516;2022-11-20T01:26:00;1.50;99.90
35894;DHT22;21994;48.204;16.516;2022-11-20T01:28:30;1.60;99.90
35894;DHT22;21994;48.204;16.516;2022-11-20T01:30:56;1.80;99.90
35894;DHT22;21994;48.204;16.516;2022-11-20T01:33:22;2.00;99.90
35894;DHT22;21994;48.204;16.516;2022-11-20T01:35:48;1.80;99.90
35894;DHT22;21994;48.204;16.516;2022-11-20T01:38:14;1.90;99.90
35894;DHT22;21994;48.204;16.516;2022-11-20T01:40:41;1.90;99.90
35894;DHT22;21994;48.204;16.516;2022-11-20T01:43:19;1.80;99.90
35894;DHT22;21994;48.204;16.516;2022-11-20T01:48:28;1.70;99.90
35894;DHT22;21994;48.204;16.516;2022-11-20T01:51:01;1.80;99.90
35894;DHT22;21994;48.204;16.516;2022-11-20T01:53:29;2.00;99.90
35894;DHT22;21994;48.204;16.516;2022-11-20T01:55:58;1.90;99.90
35894;DHT22;21994;48.204;16.516;2022-11-20T01:58:27;2.00;99.90
35894;DHT22;21994;48.204;16.516;2022-11-20T02:00:57;1.80;99.90
35894;DHT22;21994;48.204;16.516;2022-11-20T02:03:23;1.90;99.90
35894;DHT22;21994;48.204;16.516;2022-11-20T02:05:51;1.90;99.90
35894;DHT22;21994;48.204;16.516;2022-11-20T02:08:17;1.90;99.90
35894;DHT22;21994;48.204;16.516;2022-11-20T02:10:43;1.90;99.90
35894;DHT22;21994;48.204;16.516;2022-11-20T02:13:09;1.90;99.90
35894;DHT22;21994;48.204;16.516;2022-11-20T02:15:53;1.90;99.90
35894;DHT22;21994;48.204;16.516;2022-11-20T02:18:19;1.90;99.90
35894;DHT22;21994;48.204;16.516;2022-11-20T02:20:47;1.80;99.90
35894;DHT22;21994;48.204;16.516;2022-11-20T02:25:49;1.70;99.90
35894;DHT22;21994;48.204;16.516;2022-11-20T02:28:17;1.70;99.90
35894;DHT22;21994;48.204;16.516;2022-11-20T02:30:43;1.70;99.90
35894;DHT22;21994;48.204;16.516;2022-11-20T02:33:08;1.50;99.90
35894;DHT22;21994;48.204;16.516;2022-11-20T02:38:00;1.50;99.90
35894;DHT22;21994;48.204;16.516;2022-11-20T02:40:27;1.50;99.90
35894;DHT22;21994;48.204;16.516;2022-11-20T02:42:53;1.70;99.90
35894;DHT22;21994;48.204;16.516;2022-11-20T02:45:20;1.80;99.90
35894;DHT22;21994;48.204;16.516;2022-11-20T02:47:46;1.80;99.90
35894;DHT22;21994;48.204;16.516;2022-11-20T02:50:12;1.80;99.90
35894;DHT22;21994;48.204;16.516;2022-11-20T02:52:37;1.60;99.90
35894;DHT22;21994;48.204;16.516;2022-11-20T02:55:03;1.60;99.90
35894;DHT22;21994;48.204;16.516;2022-11-20T02:57:29;1.70;99.90
35894;DHT22;21994;48.204;16.516;2022-11-20T02:59:55;1.70;99.90
35894;DHT22;21994;48.204;16.516;2022-11-20T03:02:21;1.70;99.90
35894;DHT22;21994;48.204;16.516;2022-11-20T03:04:47;1.80;99.90
35894;DHT22;21994;48.204;16.516;2022-11-20T03:07:13;1.90;99.90
35894;DHT22;21994;48.204;16.516;2022-11-20T03:09:38;1.70;99.90
35894;DHT22;21994;48.204;16.516;2022-11-20T03:12:04;1.70;99.90
35894;DHT22;21994;48.204;16.516;2022-11-20T03:14:30;1.60;99.90
35894;DHT22;21994;48.204;16.516;2022-11-20T03:16:56;1.50;99.90
35894;DHT22;21994;48.204;16.516;2022-11-20T03:19:22;1.50;99.90
35894;DHT22;21994;48.204;16.516;2022-11-20T03:21:48;1.50;99.90
35894;DHT22;21994;48.204;16.516;2022-11-20T03:24:14;1.60;99.90
35894;DHT22;21994;48.204;16.516;2022-11-20T03:26:40;1.70;99.90
35894;DHT22;21994;48.204;16.516;2022-11-20T03:29:05;1.60;99.90
35894;DHT22;21994;48.204;16.516;2022-11-20T03:31:36;1.60;99.90
35894;DHT22;21994;48.204;16.516;2022-11-20T03:34:05;1.70;99.90
35894;DHT22;21994;48.204;16.516;2022-11-20T03:36:32;1.70;99.90
35894;DHT22;21994;48.204;16.516;2022-11-20T03:38:58;1.70;99.90
35894;DHT22;21994;48.204;16.516;2022-11-20T03:41:25;1.60;99.90
35894;DHT22;21994;48.204;16.516;2022-11-20T03:44:03;1.70;99.90
35894;DHT22;21994;48.204;16.516;2022-11-20T03:46:30;1.70;99.90
35894;DHT22;21994;48.204;16.516;2022-11-20T03:48:56;1.90;99.90
35894;DHT22;21994;48.204;16.516;2022-11-20T03:51:22;1.90;99.90
35894;DHT22;21994;48.204;16.516;2022-11-20T03:53:53;2.00;99.90
35894;DHT22;21994;48.204;16.516;2022-11-20T03:56:22;1.80;99.90
35894;DHT22;21994;48.204;16.516;2022-11-20T03:58:49;1.80;99.90
35894;DHT22;21994;48.204;16.516;2022-11-20T04:01:16;1.70;99.90
35894;DHT22;21994;48.204;16.516;2022-11-20T04:03:43;1.90;99.90
35894;DHT22;21994;48.204;16.516;2022-11-20T04:06:12;1.60;99.90
35894;DHT22;21994;48.204;16.516;2022-11-20T04:08:43;1.80;99.90
35894;DHT22;21994;48.204;16.516;2022-11-20T04:13:35;1.60;99.90
35894;DHT22;21994;48.204;16.516;2022-11-20T04:16:01;1.60;99.90
35894;DHT22;21994;48.204;16.516;2022-11-20T04:18:27;1.60;99.90
35894;DHT22;21994;48.204;16.516;2022-11-20T04:20:53;1.70;99.90
35894;DHT22;21994;48.204;16.516;2022-11-20T04:23:18;1.60;99.90
35894;DHT22;21994;48.204;16.516;2022-11-20T04:25:44;1.60;99.90
35894;DHT22;21994;48.204;16.516;2022-11-20T04:28:10;1.60;99.90
35894;DHT22;21994;48.204;16.516;2022-11-20T04:30:36;1.70;99.90
35894;DHT22;21994;48.204;16.516;2022-11-20T04:33:01;1.70;99.90
35894;DHT22;21994;48.204;16.516;2022-11-20T04:35:27;1.80;99.90
35894;DHT22;21994;48.204;16.516;2022-11-20T04:37:53;1.90;99.90
35894;DHT22;21994;48.204;16.516;2022-11-20T04:40:21;1.90;99.90
35894;DHT22;21994;48.204;16.516;2022-11-20T04:42:47;1.70;99.90
35894;DHT22;21994;48.204;16.516;2022-11-20T04:45:12;1.60;99.90
35894;DHT22;21994;48.204;16.516;2022-11-20T04:47:38;1.50;99.90
35894;DHT22;21994;48.204;16.516;2022-11-20T04:50:04;1.60;99.90
35894;DHT22;21994;48.204;16.516;2022-11-20T04:52:30;1.60;99.90
35894;DHT22;21994;48.204;16.516;2022-11-20T04:54:56;1.60;99.90
35894;DHT22;21994;48.204;16.516;2022-11-20T04:57:21;1.60;99.90
35894;DHT22;21994;48.204;16.516;2022-11-20T04:59:47;1.70;99.90
35894;DHT22;21994;48.204;16.516;2022-11-20T05:02:13;1.60;99.90
35894;DHT22;21994;48.204;16.516;2022-11-20T05:04:39;1.50;99.90
35894;DHT22;21994;48.204;16.516;2022-11-20T05:07:04;1.30;99.90
35894;DHT22;21994;48.204;16.516;2022-11-20T05:09:30;1.30;99.90
35894;DHT22;21994;48.204;16.516;2022-11-20T05:11:56;1.30;99.90
35894;DHT22;21994;48.204;16.516;2022-11-20T05:14:22;1.40;99.90
35894;DHT22;21994;48.204;16.516;2022-11-20T05:16:48;1.40;99.90
35894;DHT22;21994;48.204;16.516;2022-11-20T05:19:13;1.30;99.90
35894;DHT22;21994;48.204;16.516;2022-11-20T05:21:39;1.20;99.90
35894;DHT22;21994;48.204;16.516;2022-11-20T05:24:05;1.10;99.90
35894;DHT22;21994;48.204;16.516;2022-11-20T05:26:32;1.20;99.90
35894;DHT22;21994;48.204;16.516;2022-11-20T05:28:58;1.30;99.90
35894;DHT22;21994;48.204;16.516;2022-11-20T05:31:24;1.30;99.90
35894;DHT22;21994;48.204;16.516;2022-11-20T05:33:50;1.30;99.90
35894;DHT22;21994;48.204;16.516;2022-11-20T05:36:16;1.40;99.90
35894;DHT22;21994;48.204;16.516;2022-11-20T05:38:43;1.30;99.90
35894;DHT22;21994;48.204;16.516;2022-11-20T05:41:10;1.40;99.90
35894;DHT22;21994;48.204;16.516;2022-11-20T05:43:42;1.20;99.90
35894;DHT22;21994;48.204;16.516;2022-11-20T05:46:10;1.10;99.90
35894;DHT22;21994;48.204;16.516;2022-11-20T05:48:37;1.10;99.90
35894;DHT22;21994;48.204;16.516;2022-11-20T05:51:04;1.20;99.90
35894;DHT22;21994;48.204;16.516;2022-11-20T05:53:32;1.30;99.90
35894;DHT22;21994;48.204;16.516;2022-11-20T05:58:24;1.50;99.90
35894;DHT22;21994;48.204;16.516;2022-11-20T06:00:50;1.40;99.90
35894;DHT22;21994;48.204;16.516;2022-11-20T06:03:15;1.40;99.90
35894;DHT22;21994;48.204;16.516;2022-11-20T06:05:41;1.20;99.90
35894;DHT22;21994;48.204;16.516;2022-11-20T06:08:07;1.30;99.90
35894;DHT22;21994;48.204;16.516;2022-11-20T06:10:33;1.20;99.90
35894;DHT22;21994;48.204;16.516;2022-11-20T06:12:58;1.10;99.90
35894;DHT22;21994;48.204;16.516;2022-11-20T06:15:24;1.00;99.90
35894;DHT22;21994;48.204;16.516;2022-11-20T06:17:53;1.10;99.90
35894;DHT22;21994;48.204;16.516;2022-11-20T06:20:20;1.20;99.90
35894;DHT22;21994;48.204;16.516;2022-11-20T06:22:47;1.30;99.90
35894;DHT22;21994;48.204;16.516;2022-11-20T06:25:13;1.20;99.90
35894;DHT22;21994;48.204;16.516;2022-11-20T06:27:39;1.10;99.90
35894;DHT22;21994;48.204;16.516;2022-11-20T06:30:05;1.30;99.90
35894;DHT22;21994;48.204;16.516;2022-11-20T06:32:31;1.20;99.90
35894;DHT22;21994;48.204;16.516;2022-11-20T06:34:56;1.20;99.90
35894;DHT22;21994;48.204;16.516;2022-11-20T06:37:22;1.10;99.90
35894;DHT22;21994;48.204;16.516;2022-11-20T06:39:48;1.30;99.90
35894;DHT22;21994;48.204;16.516;2022-11-20T06:42:13;1.40;99.90
35894;DHT22;21994;48.204;16.516;2022-11-20T06:44:39;1.40;99.90
35894;DHT22;21994;48.204;16.516;2022-11-20T06:47:05;1.30;99.90
35894;DHT22;21994;48.204;16.516;2022-11-20T06:49:31;1.30;99.90
35894;DHT22;21994;48.204;16.516;2022-11-20T06:51:57;1.30;99.90
35894;DHT22;21994;48.204;16.516;2022-11-20T06:54:22;1.30;99.90
35894;DHT22;21994;48.204;16.516;2022-11-20T06:56:48;1.30;99.90
35894;DHT22;21994;48.204;16.516;2022-11-20T06:59:14;1.40;99.90
35894;DHT22;21994;48.204;16.516;2022-11-20T07:01:40;1.40;99.90
35894;DHT22;21994;48.204;16.516;2022-11-20T07:04:06;1.30;99.90
35894;DHT22;21994;48.204;16.516;2022-11-20T07:06:31;1.40;99.90
35894;DHT22;21994;48.204;16.516;2022-11-20T07:08:57;1.50;99.90
35894;DHT22;21994;48.204;16.516;2022-11-20T07:11:23;1.60;99.90
35894;DHT22;21994;48.204;16.516;2022-11-20T07:13:49;1.60;99.90
35894;DHT22;21994;48.204;16.516;2022-11-20T07:16:15;1.60;99.90
35894;DHT22;21994;48.204;16.516;2022-11-20T07:18:43;1.70;99.90
35894;DHT22;21994;48.204;16.516;2022-11-20T07:21:09;1.50;99.90
35894;DHT22;21994;48.204;16.516;2022-11-20T07:23:35;1.50;99.90
35894;DHT22;21994;48.204;16.516;2022-11-20T07:26:05;1.40;99.90
35894;DHT22;21994;48.204;16.516;2022-11-20T07:28:31;1.60;99.90
35894;DHT22;21994;48.204;16.516;2022-11-20T07:30:57;1.50;99.90
35894;DHT22;21994;48.204;16.516;2022-11-20T07:33:23;1.60;99.90
35894;DHT22;21994;48.204;16.516;2022-11-20T07:35:49;1.70;99.90
35894;DHT22;21994;48.204;16.516;2022-11-20T07:38:15;1.70;99.90
35894;DHT22;21994;48.204;16.516;2022-11-20T07:40:40;1.80;99.90
35894;DHT22;21994;48.204;16.516;2022-11-20T07:43:06;1.80;99.90
35894;DHT22;21994;48.204;16.516;2022-11-20T07:45:32;1.80;99.90
35894;DHT22;21994;48.204;16.516;2022-11-20T07:47:58;1.80;99.90
35894;DHT22;21994;48.204;16.516;2022-11-20T07:50:23;1.90;99.90
35894;DHT22;21994;48.204;16.516;2022-11-20T07:52:49;1.90;99.90
35894;DHT22;21994;48.204;16.516;2022-11-20T07:55:15;1.80;99.90
35894;DHT22;21994;48.204;16.516;2022-11-20T07:57:41;1.80;99.90
35894;DHT22;21994;48.204;16.516;2022-11-20T08:00:08;1.80;99.90
35894;DHT22;21994;48.204;16.516;2022-11-20T08:02:39;1.80;99.90
35894;DHT22;21994;48.204;16.516;2022-11-20T08:05:05;1.90;99.90
35894;DHT22;21994;48.204;16.516;2022-11-20T08:07:36;1.90;99.90
35894;DHT22;21994;48.204;16.516;2022-11-20T08:10:03;1.90;99.90
35894;DHT22;21994;48.204;16.516;2022-11-20T08:12:29;2.00;99.90
35894;DHT22;21994;48.204;16.516;2022-11-20T08:15:13;1.90;99.90
35894;DHT22;21994;48.204;16.516;2022-11-20T08:17:39;1.90;99.90
35894;DHT22;21994;48.204;16.516;2022-11-20T08:20:05;1.90;99.90
35894;DHT22;21994;48.204;16.516;2022-11-20T08:22:31;2.00;99.90
35894;DHT22;21994;48.204;16.516;2022-11-20T08:24:57;1.90;99.90
35894;DHT22;21994;48.204;16.516;2022-11-20T08:27:23;2.00;99.90
35894;DHT22;21994;48.204;16.516;2022-11-20T08:29:48;2.00;99.90
35894;DHT22;21994;48.204;16.516;2022-11-20T08:32:14;2.00;99.90
35894;DHT22;21994;48.204;16.516;2022-11-20T08:34:40;2.10;99.90
35894;DHT22;21994;48.204;16.516;2022-11-20T08:37:06;2.20;99.90
35894;DHT22;21994;48.204;16.516;2022-11-20T08:39:31;2.30;99.90
35894;DHT22;21994;48.204;16.516;2022-11-20T08:41:57;2.20;99.90
35894;DHT22;21994;48.204;16.516;2022-11-20T08:44:23;2.20;99.90
35894;DHT22;21994;48.204;16.516;2022-11-20T08:46:48;2.20;99.90
35894;DHT22;21994;48.204;16.516;2022-11-20T08:49:14;2.30;99.90
35894;DHT22;21994;48.204;16.516;2022-11-20T08:51:40;2.30;99.90
35894;DHT22;21994;48.204;16.516;2022-11-20T08:54:07;2.40;99.90
35894;DHT22;21994;48.204;16.516;2022-11-20T08:56:33;2.50;99.90
35894;DHT22;21994;48.204;16.516;2022-11-20T08:59:00;2.50;99.90
35894;DHT22;21994;48.204;16.516;2022-11-20T09:01:25;2.60;99.90
35894;DHT22;21994;48.204;16.516;2022-11-20T09:03:51;2.60;99.90
35894;DHT22;21994;48.204;16.516;2022-11-20T09:06:17;2.60;99.90
35894;DHT22;21994;48.204;16.516;2022-11-20T09:08:43;2.60;99.90
35894;DHT22;21994;48.204;16.516;2022-11-20T09:11:09;2.70;99.90
35894;DHT22;21994;48.204;16.516;2022-11-20T09:13:35;2.50;99.90
35894;DHT22;21994;48.204;16.516;2022-11-20T09:16:03;2.70;99.90
35894;DHT22;21994;48.204;16.516;2022-11-20T09:18:33;2.60;99.90
35894;DHT22;21994;48.204;16.516;2022-11-20T09:21:02;2.60;99.90
35894;DHT22;21994;48.204;16.516;2022-11-20T09:23:33;2.60;99.90
35894;DHT22;21994;48.204;16.516;2022-11-20T09:26:04;2.70;99.90
35894;DHT22;21994;48.204;16.516;2022-11-20T09:28:30;2.80;99.90
35894;DHT22;21994;48.204;16.516;2022-11-20T09:30:56;2.70;99.90
35894;DHT22;21994;48.204;16.516;2022-11-20T09:33:22;2.70;99.90
35894;DHT22;21994;48.204;16.516;2022-11-20T09:35:48;2.80;99.90
35894;DHT22;21994;48.204;16.516;2022-11-20T09:38:14;2.80;99.90
35894;DHT22;21994;48.204;16.516;2022-11-20T09:49:14;2.80;99.90
35894;DHT22;21994;48.204;16.516;2022-11-20T09:54:19;2.90;99.90
35894;DHT22;21994;48.204;16.516;2022-11-20T09:56:47;2.90;99.90
35894;DHT22;21994;48.204;16.516;2022-11-20T09:59:59;2.80;99.90
35894;DHT22;21994;48.204;16.516;2022-11-20T10:05:04;2.80;99.90
35894;DHT22;21994;48.204;16.516;2022-11-20T10:10:16;3.00;99.90
35894;DHT22;21994;48.204;16.516;2022-11-20T10:18:42;3.30;99.90
35894;DHT22;21994;48.204;16.516;2022-11-20T10:23:52;3.40;99.90
35894;DHT22;21994;48.204;16.516;2022-11-20T10:26:26;3.30;99.90
35894;DHT22;21994;48.204;16.516;2022-11-20T10:29:02;3.40;99.90
35894;DHT22;21994;48.204;16.516;2022-11-20T10:31:45;3.40;99.90
35894;DHT22;21994;48.204;16.516;2022-11-20T10:37:15;3.50;99.90
35894;DHT22;21994;48.204;16.516;2022-11-20T10:40:00;3.50;99.90
35894;DHT22;21994;48.204;16.516;2022-11-20T10:42:49;3.40;99.90
35894;DHT22;21994;48.204;16.516;2022-11-20T10:47:56;3.50;99.90
35894;DHT22;21994;48.204;16.516;2022-11-20T10:50:35;3.40;99.90
35894;DHT22;21994;48.204;16.516;2022-11-20T10:53:05;3.60;99.90
35894;DHT22;21994;48.204;16.516;2022-11-20T10:55:40;3.60;99.90
35894;DHT22;21994;48.204;16.516;2022-11-20T10:58:26;3.70;99.90
35894;DHT22;21994;48.204;16.516;2022-11-20T11:01:05;3.80;99.90
35894;DHT22;21994;48.204;16.516;2022-11-20T11:03:41;4.00;99.90
35894;DHT22;21994;48.204;16.516;2022-11-20T11:06:42;4.00;99.90
35894;DHT22;21994;48.204;16.516;2022-11-20T11:09:27;4.00;99.90
35894;DHT22;21994;48.204;16.516;2022-11-20T11:11:58;4.20;99.90
35894;DHT22;21994;48.204;16.516;2022-11-20T11:14:24;4.30;99.90
35894;DHT22;21994;48.204;16.516;2022-11-20T11:16:54;4.30;99.90
35894;DHT22;21994;48.204;16.516;2022-11-20T11:19:21;4.60;99.90
35894;DHT22;21994;48.204;16.516;2022-11-20T11:21:47;4.60;99.90
35894;DHT22;21994;48.204;16.516;2022-11-20T11:24:19;4.60;99.90
35894;DHT22;21994;48.204;16.516;2022-11-20T11:27:31;4.60;99.90
35894;DHT22;21994;48.204;16.516;2022-11-20T11:29:39;4.60;99.90
35894;DHT22;21994;48.204;16.516;2022-11-20T11:32:11;4.50;99.90
35894;DHT22;21994;48.204;16.516;2022-11-20T11:34:38;4.60;99.90
35894;DHT22;21994;48.204;16.516;2022-11-20T11:37:04;4.60;99.90
35894;DHT22;21994;48.204;16.516;2022-11-20T11:39:31;4.70;99.90
35894;DHT22;21994;48.204;16.516;2022-11-20T11:41:58;4.70;99.90
35894;DHT22;21994;48.204;16.516;2022-11-20T11:44:27;4.60;99.90
35894;DHT22;21994;48.204;16.516;2022-11-20T11:47:29;4.60;99.90
35894;DHT22;21994;48.204;16.516;2022-11-20T11:52:56;4.70;99.90
35894;DHT22;21994;48.204;16.516;2022-11-20T12:00:29;4.80;99.90
35894;DHT22;21994;48.204;16.516;2022-11-20T12:05:48;4.80;99.90
35894;DHT22;21994;48.204;16.516;2022-11-20T12:08:20;4.90;99.90
35894;DHT22;21994;48.204;16.516;2022-11-20T12:10:54;5.20;99.90
35894;DHT22;21994;48.204;16.516;2022-11-20T12:15:58;5.40;99.90
35894;DHT22;21994;48.204;16.516;2022-11-20T12:18:25;5.60;99.90
35894;DHT22;21994;48.204;16.516;2022-11-20T12:21:06;5.70;99.90
35894;DHT22;21994;48.204;16.516;2022-11-20T12:26:07;6.00;99.90
35894;DHT22;21994;48.204;16.516;2022-11-20T12:36:40;6.40;99.90
35894;DHT22;21994;48.204;16.516;2022-11-20T12:39:25;6.50;99.90
35894;DHT22;21994;48.204;16.516;2022-11-20T12:52:53;7.30;99.90
35894;DHT22;21994;48.204;16.516;2022-11-20T12:57:58;7.70;99.90
35894;DHT22;21994;48.204;16.516;2022-11-20T13:00:30;7.70;99.90
35894;DHT22;21994;48.204;16.516;2022-11-20T13:06:19;7.60;99.90
35894;DHT22;21994;48.204;16.516;2022-11-20T13:08:48;7.80;99.90
35894;DHT22;21994;48.204;16.516;2022-11-20T13:11:24;8.00;99.90
35894;DHT22;21994;48.204;16.516;2022-11-20T13:16:30;8.10;99.90
35894;DHT22;21994;48.204;16.516;2022-11-20T13:19:04;8.20;99.90
35894;DHT22;21994;48.204;16.516;2022-11-20T13:21:37;8.00;99.90
35894;DHT22;21994;48.204;16.516;2022-11-20T13:24:19;7.90;99.90
35894;DHT22;21994;48.204;16.516;2022-11-20T13:26:45;7.90;99.90
35894;DHT22;21994;48.204;16.516;2022-11-20T13:29:15;8.00;99.90
35894;DHT22;21994;48.204;16.516;2022-11-20T13:31:45;7.80;99.90
35894;DHT22;21994;48.204;16.516;2022-11-20T13:34:12;7.80;99.90
35894;DHT22;21994;48.204;16.516;2022-11-20T13:36:50;7.70;99.90
35894;DHT22;21994;48.204;16.516;2022-11-20T13:39:24;7.50;99.90
35894;DHT22;21994;48.204;16.516;2022-11-20T13:41:59;7.30;99.90
35894;DHT22;21994;48.204;16.516;2022-11-20T13:44:33;7.20;99.90
35894;DHT22;21994;48.204;16.516;2022-11-20T13:47:18;7.10;99.90
35894;DHT22;21994;48.204;16.516;2022-11-20T13:49:51;7.00;99.90
35894;DHT22;21994;48.204;16.516;2022-11-20T13:55:00;6.70;99.90
35894;DHT22;21994;48.204;16.516;2022-11-20T14:00:45;6.60;99.90
35894;DHT22;21994;48.204;16.516;2022-11-20T14:03:18;6.60;99.90
35894;DHT22;21994;48.204;16.516;2022-11-20T14:05:55;6.60;99.90
35894;DHT22;21994;48.204;16.516;2022-11-20T14:08:39;6.60;99.90
35894;DHT22;21994;48.204;16.516;2022-11-20T14:13:54;6.30;99.90
35894;DHT22;21994;48.204;16.516;2022-11-20T14:16:24;6.30;99.90
35894;DHT22;21994;48.204;16.516;2022-11-20T14:18:54;6.20;99.90
35894;DHT22;21994;48.204;16.516;2022-11-20T14:21:29;6.30;99.90
35894;DHT22;21994;48.204;16.516;2022-11-20T14:24:09;6.30;99.90
35894;DHT22;21994;48.204;16.516;2022-11-20T14:26:36;6.20;99.90
35894;DHT22;21994;48.204;16.516;2022-11-20T14:29:03;6.20;99.90
35894;DHT22;21994;48.204;16.516;2022-11-20T14:31:29;6.20;99.90
35894;DHT22;21994;48.204;16.516;2022-11-20T14:33:55;6.20;99.90
35894;DHT22;21994;48.204;16.516;2022-11-20T14:36:22;6.30;99.90
35894;DHT22;21994;48.204;16.516;2022-11-20T14:38:50;6.20;99.90
35894;DHT22;21994;48.204;16.516;2022-11-20T14:41:20;6.20;99.90
35894;DHT22;21994;48.204;16.516;2022-11-20T14:43:47;6.20;99.90
35894;DHT22;21994;48.204;16.516;2022-11-20T14:46:17;6.10;99.90
35894;DHT22;21994;48.204;16.516;2022-11-20T14:48:44;6.10;99.90
35894;DHT22;21994;48.204;16.516;2022-11-20T14:51:22;6.10;99.90
35894;DHT22;21994;48.204;16.516;2022-11-20T14:54:08;5.90;99.90
35894;DHT22;21994;48.204;16.516;2022-11-20T14:56:37;5.90;99.90
35894;DHT22;21994;48.204;16.516;2022-11-20T14:59:02;5.80;99.90
35894;DHT22;21994;48.204;16.516;2022-11-20T15:01:29;5.50;99.90
35894;DHT22;21994;48.204;16.516;2022-11-20T15:04:06;5.40;99.90
35894;DHT22;21994;48.204;16.516;2022-11-20T15:06:33;5.20;99.90
35894;DHT22;21994;48.204;16.516;2022-11-20T15:08:58;5.00;99.90
35894;DHT22;21994;48.204;16.516;2022-11-20T15:11:27;4.90;99.90
35894;DHT22;21994;48.204;16.516;2022-11-20T15:13:57;4.70;99.90
35894;DHT22;21994;48.204;16.516;2022-11-20T15:16:24;4.50;99.90
35894;DHT22;21994;48.204;16.516;2022-11-20T15:18:52;4.40;99.90
35894;DHT22;21994;48.204;16.516;2022-11-20T15:21:18;4.20;99.90
35894;DHT22;21994;48.204;16.516;2022-11-20T15:23:46;4.10;99.90
35894;DHT22;21994;48.204;16.516;2022-11-20T15:26:13;3.90;99.90
35894;DHT22;21994;48.204;16.516;2022-11-20T15:28:41;3.70;99.90
35894;DHT22;21994;48.204;16.516;2022-11-20T15:31:11;3.60;99.90
35894;DHT22;21994;48.204;16.516;2022-11-20T15:33:37;3.50;99.90
35894;DHT22;21994;48.204;16.516;2022-11-20T15:36:02;3.40;99.90
35894;DHT22;21994;48.204;16.516;2022-11-20T15:38:28;3.20;99.90
35894;DHT22;21994;48.204;16.516;2022-11-20T15:40:54;3.10;99.90
35894;DHT22;21994;48.204;16.516;2022-11-20T15:43:20;3.10;99.90
35894;DHT22;21994;48.204;16.516;2022-11-20T15:48:35;2.90;99.90
35894;DHT22;21994;48.204;16.516;2022-11-20T15:53:29;2.70;99.90
35894;DHT22;21994;48.204;16.516;2022-11-20T15:55:54;2.70;99.90
35894;DHT22;21994;48.204;16.516;2022-11-20T15:58:20;2.60;99.90
35894;DHT22;21994;48.204;16.516;2022-11-20T16:00:48;2.60;99.90
35894;DHT22;21994;48.204;16.516;2022-11-20T16:03:14;2.60;99.90
35894;DHT22;21994;48.204;16.516;2022-11-20T16:05:40;2.50;99.90
35894;DHT22;21994;48.204;16.516;2022-11-20T16:08:06;2.40;99.90
35894;DHT22;21994;48.204;16.516;2022-11-20T16:10:32;2.20;99.90
35894;DHT22;21994;48.204;16.516;2022-11-20T16:12:58;2.10;99.90
35894;DHT22;21994;48.204;16.516;2022-11-20T16:15:43;2.10;99.90
35894;DHT22;21994;48.204;16.516;2022-11-20T16:18:16;2.00;99.90
35894;DHT22;21994;48.204;16.516;2022-11-20T16:20:43;2.00;99.90
35894;DHT22;21994;48.204;16.516;2022-11-20T16:23:10;2.00;99.90
35894;DHT22;21994;48.204;16.516;2022-11-20T16:25:36;1.90;99.90
35894;DHT22;21994;48.204;16.516;2022-11-20T16:28:02;1.80;99.90
35894;DHT22;21994;48.204;16.516;2022-11-20T16:30:28;1.70;99.90
35894;DHT22;21994;48.204;16.516;2022-11-20T16:32:54;1.70;99.90
35894;DHT22;21994;48.204;16.516;2022-11-20T16:35:19;1.70;99.90
35894;DHT22;21994;48.204;16.516;2022-11-20T16:37:45;1.60;99.90
35894;DHT22;21994;48.204;16.516;2022-11-20T16:40:11;1.60;99.90
35894;DHT22;21994;48.204;16.516;2022-11-20T16:42:37;1.70;99.90
35894;DHT22;21994;48.204;16.516;2022-11-20T16:45:03;1.70;99.90
35894;DHT22;21994;48.204;16.516;2022-11-20T16:47:33;1.80;99.90
35894;DHT22;21994;48.204;16.516;2022-11-20T16:49:59;1.80;99.90
35894;DHT22;21994;48.204;16.516;2022-11-20T16:52:26;1.80;99.90
35894;DHT22;21994;48.204;16.516;2022-11-20T16:54:52;1.80;99.90
35894;DHT22;21994;48.204;16.516;2022-11-20T16:57:17;1.90;99.90
35894;DHT22;21994;48.204;16.516;2022-11-20T16:59:43;1.90;99.90
35894;DHT22;21994;48.204;16.516;2022-11-20T17:02:09;1.90;99.90
35894;DHT22;21994;48.204;16.516;2022-11-20T17:04:35;2.00;99.90
35894;DHT22;21994;48.204;16.516;2022-11-20T17:07:01;2.00;99.90
35894;DHT22;21994;48.204;16.516;2022-11-20T17:09:27;1.90;99.90
35894;DHT22;21994;48.204;16.516;2022-11-20T17:11:53;1.90;99.90
35894;DHT22;21994;48.204;16.516;2022-11-20T17:14:19;1.90;99.90
35894;DHT22;21994;48.204;16.516;2022-11-20T17:16:45;1.90;99.90
35894;DHT22;21994;48.204;16.516;2022-11-20T17:19:11;1.80;99.90